Aviation Digital Data Service (ADDS)

Output produced by METARs form (2344 UTC 04 July 2022)
found at http://www.aviationweather.gov/metar/data/
 
Forecast for: WIII (SOEKARNO-HATTA I, ID)
Text: TAF WIII 042300Z 0500/0606 06013KT 9999 FEW020
Forecast period: 0000 to 1400 UTC 05 July 2022
Forecast type: FROM: standard forecast or significant change
Winds: from the ENE (60 degrees) at 15 MPH (13 knots; 6.7 m/s)
Visibility: 6 or more miles (10+ km)
Ceiling: at least 12,000 feet AGL
Clouds: few clouds at 2000 feet AGL
Weather: no significant weather forecast for this period
Text: BECMG 0514/0516 18003KT 4000 HZ
Forecast period: 1400 UTC 05 July 2022 to 0600 UTC 06 July 2022
Forecast type: BECOMING: Conditions expected to become as follows by 1600 UTC 05 July 2022
Winds: from the S (180 degrees) at 3 MPH (3 knots; 1.5 m/s)
Visibility: 2.49 miles (4.01 km)
Ceiling: at least 12,000 feet AGL
Clouds: few clouds at 2000 feet AGL
Weather: HZ  (haze)